Time;durP1;ratioP1;P1;durP2;ratioP2;P2;SDS_P1;SDS_P2;PMS_P1;PMS_P2;Temp;Humidity;BMP_temperature;BMP_pressure;BME280_temperature;BME280_humidity;BME280_pressure;Samples;Min_cycle;Max_cycle;Signal;HPM_P1;HPM_P2
2022/10/03 00:01:55;;;;;;;13.38;4.15;;;10.70;99.90;;;;;;5032665;28;20084;-82
2022/10/03 00:04:48;;;;;;;12.40;2.20;;;10.60;99.90;;;;;;5032897;28;20103;-78
2022/10/03 00:08:06;;;;;;;14.13;2.67;;;10.90;99.90;;;;;;5032143;28;20051;-78
2022/10/03 00:11:01;;;;;;;15.13;3.92;;;10.70;99.90;;;;;;4957129;28;21701;-78
2022/10/03 00:13:46;;;;;;;9.63;2.45;;;10.60;99.90;;;;;;5035142;28;20041;-75
2022/10/03 00:16:25;;;;;;;16.55;4.38;;;10.60;99.90;;;;;;5036600;28;20063;-81
2022/10/03 00:19:15;;;;;;;12.63;4.07;;;10.40;99.90;;;;;;5034120;28;20387;-82
2022/10/03 00:21:53;;;;;;;10.30;2.63;;;10.50;99.90;;;;;;5037146;28;20098;-84
2022/10/03 00:24:49;;;;;;;24.65;4.55;;;10.70;99.90;;;;;;5032740;28;20044;-82
2022/10/03 00:27:24;;;;;;;18.05;5.45;;;10.60;99.90;;;;;;5039014;28;20083;-81
2022/10/03 00:29:55;;;;;;;19.77;4.85;;;10.60;99.90;;;;;;5042526;28;20048;-82
2022/10/03 00:32:53;;;;;;;17.63;4.40;;;10.60;99.90;;;;;;5042128;28;20080;-74
2022/10/03 00:35:38;;;;;;;19.67;4.07;;;10.50;99.90;;;;;;5036894;28;20053;-83
2022/10/03 00:38:21;;;;;;;19.63;3.13;;;10.30;99.90;;;;;;5042047;28;21159;-75
2022/10/03 00:41:06;;;;;;;14.88;2.80;;;10.40;99.90;;;;;;5039828;28;20049;-80
2022/10/03 00:44:06;;;;;;;13.52;3.03;;;10.30;99.90;;;;;;5038856;28;20179;-80
2022/10/03 00:46:47;;;;;;;16.30;2.90;;;10.20;99.90;;;;;;5036260;28;20112;-75
2022/10/03 00:49:47;;;;;;;18.13;3.28;;;10.20;99.90;;;;;;5035545;28;20103;-79
2022/10/03 00:52:47;;;;;;;31.27;4.93;;;10.40;99.90;;;;;;5018534;28;20053;-82
2022/10/03 00:55:50;;;;;;;12.90;2.83;;;10.60;99.90;;;;;;5030602;28;20071;-79
2022/10/03 00:58:48;;;;;;;5.55;2.13;;;10.70;99.90;;;;;;5032882;28;20083;-77
2022/10/03 01:01:22;;;;;;;15.93;3.15;;;10.50;99.90;;;;;;4955576;28;20518;-75
2022/10/03 01:04:09;;;;;;;8.90;2.70;;;10.60;99.90;;;;;;5034710;28;20060;-76
2022/10/03 01:07:12;;;;;;;22.50;6.32;;;10.60;99.90;;;;;;5033371;28;20379;-74
2022/10/03 01:09:47;;;;;;;21.73;5.50;;;10.80;99.90;;;;;;5034750;28;20396;-78
2022/10/03 01:12:50;;;;;;;17.48;2.85;;;10.80;99.90;;;;;;5036458;28;20091;-77
2022/10/03 01:15:41;;;;;;;14.05;2.60;;;10.50;99.90;;;;;;5036302;28;20057;-79
2022/10/03 01:18:21;;;;;;;9.30;2.38;;;10.80;99.90;;;;;;5035984;28;20294;-78
2022/10/03 01:21:11;;;;;;;9.77;2.80;;;10.90;99.90;;;;;;5039008;28;20071;-79
2022/10/03 01:23:52;;;;;;;14.38;2.42;;;10.70;99.90;;;;;;5042649;28;20080;-79
2022/10/03 01:26:44;;;;;;;7.95;2.63;;;10.80;99.90;;;;;;5025828;28;20059;-77
2022/10/03 01:32:01;;;;;;;11.82;1.50;;;10.80;99.90;;;;;;5037159;28;20053;-76
2022/10/03 01:34:41;;;;;;;12.95;2.33;;;10.90;99.90;;;;;;5021272;28;20178;-76
2022/10/03 01:37:15;;;;;;;9.32;2.67;;;10.80;99.90;;;;;;5035371;28;21064;-80
2022/10/03 01:39:56;;;;;;;10.18;3.13;;;10.90;99.90;;;;;;5036480;28;20056;-80
2022/10/03 01:42:30;;;;;;;14.40;3.47;;;10.70;99.90;;;;;;5033687;28;20043;-80
2022/10/03 01:45:10;;;;;;;12.73;3.78;;;10.70;99.90;;;;;;5035681;28;20045;-77
2022/10/03 01:47:50;;;;;;;17.42;4.32;;;10.70;99.90;;;;;;5036473;28;20059;-81
2022/10/03 01:50:35;;;;;;;21.30;4.03;;;10.50;99.90;;;;;;5037048;28;20432;-74
2022/10/03 01:53:13;;;;;;;17.05;4.70;;;10.60;99.90;;;;;;5034518;28;20052;-78
2022/10/03 01:56:14;;;;;;;17.00;3.38;;;10.60;99.90;;;;;;5036186;28;20090;-80
2022/10/03 01:59:06;;;;;;;19.15;4.55;;;10.30;99.90;;;;;;5039485;28;20148;-80
2022/10/03 02:01:47;;;;;;;18.70;4.47;;;10.40;99.90;;;;;;5022665;28;20404;-78
2022/10/03 02:04:38;;;;;;;10.85;2.33;;;10.20;99.90;;;;;;5030060;28;20041;-79
2022/10/03 02:07:10;;;;;;;16.13;4.53;;;10.30;99.90;;;;;;5037301;28;20128;-79
2022/10/03 02:09:55;;;;;;;15.38;4.63;;;10.30;99.90;;;;;;5041543;28;20084;-79
2022/10/03 02:12:37;;;;;;;8.02;3.05;;;10.30;99.90;;;;;;5017216;28;20081;-82
2022/10/03 02:15:38;;;;;;;14.98;4.55;;;10.10;99.90;;;;;;5037775;28;20056;-76
2022/10/03 02:18:27;;;;;;;12.98;5.57;;;10.00;99.90;;;;;;4980686;28;20060;-80
2022/10/03 02:21:08;;;;;;;13.07;5.55;;;10.10;99.90;;;;;;5016656;28;20445;-76
2022/10/03 02:23:33;;;;;;;15.10;5.93;;;10.20;99.90;;;;;;5037234;28;20045;-80
2022/10/03 02:26:30;;;;;;;15.55;5.72;;;9.90;99.90;;;;;;5040110;28;20045;-79
2022/10/03 02:29:33;;;;;;;13.50;4.93;;;9.90;99.90;;;;;;5041295;28;20098;-79
2022/10/03 02:32:24;;;;;;;20.75;6.45;;;9.90;99.90;;;;;;5022077;28;20052;-76
2022/10/03 02:35:06;;;;;;;15.48;5.65;;;10.10;99.90;;;;;;5034953;28;20080;-80
2022/10/03 02:37:45;;;;;;;10.50;3.78;;;10.00;99.90;;;;;;5036964;28;20056;-79
2022/10/03 02:40:24;;;;;;;11.38;3.40;;;9.90;99.90;;;;;;5038786;28;20415;-76
2022/10/03 02:43:01;;;;;;;17.20;3.78;;;9.90;99.90;;;;;;5039039;28;20136;-81
2022/10/03 02:45:36;;;;;;;11.00;3.15;;;9.80;99.90;;;;;;5038172;28;20048;-80
2022/10/03 02:48:41;;;;;;;12.55;2.38;;;9.90;99.90;;;;;;5041137;28;20080;-79
2022/10/03 02:51:29;;;;;;;10.80;2.60;;;9.80;99.90;;;;;;5032911;28;20049;-80
2022/10/03 02:54:32;;;;;;;6.90;1.55;;;10.10;99.90;;;;;;5037356;28;20140;-81
2022/10/03 02:57:06;;;;;;;11.23;2.33;;;9.80;99.90;;;;;;5040556;28;20048;-76
2022/10/03 02:59:53;;;;;;;11.93;2.38;;;10.00;99.90;;;;;;5040238;28;20102;-77
2022/10/03 03:02:40;;;;;;;20.20;3.80;;;9.70;99.90;;;;;;5022165;28;20056;-82
2022/10/03 03:05:26;;;;;;;6.72;1.38;;;9.70;99.90;;;;;;5039828;28;20048;-79
2022/10/03 03:08:23;;;;;;;17.13;2.22;;;9.70;99.90;;;;;;5038843;28;20048;-80
2022/10/03 03:11:12;;;;;;;9.48;3.50;;;9.90;99.90;;;;;;5035190;28;20052;-80
2022/10/03 03:14:08;;;;;;;8.13;2.17;;;9.70;99.90;;;;;;5017743;28;20491;-78
2022/10/03 03:17:00;;;;;;;5.85;2.28;;;9.90;99.90;;;;;;5036905;28;20053;-81
2022/10/03 03:19:36;;;;;;;11.32;2.53;;;9.60;99.90;;;;;;5019576;28;20072;-77
2022/10/03 03:22:14;;;;;;;7.43;1.70;;;9.80;99.90;;;;;;5037573;28;20041;-79
2022/10/03 03:24:57;;;;;;;12.07;2.35;;;9.60;99.90;;;;;;5033941;28;20045;-79
2022/10/03 03:27:34;;;;;;;7.10;2.97;;;9.50;99.90;;;;;;5033628;28;20553;-75
2022/10/03 03:30:10;;;;;;;9.93;2.40;;;9.60;99.90;;;;;;5015644;28;20113;-79
2022/10/03 03:33:19;;;;;;;7.43;2.75;;;9.70;99.90;;;;;;5035121;28;20642;-77
2022/10/03 03:36:02;;;;;;;7.95;3.13;;;9.60;99.90;;;;;;5034757;28;20037;-82
2022/10/03 03:38:37;;;;;;;8.63;2.78;;;9.60;99.90;;;;;;5016616;28;20107;-81
2022/10/03 03:41:08;;;;;;;7.70;1.58;;;9.50;99.90;;;;;;5036376;28;20052;-77
2022/10/03 03:43:49;;;;;;;8.52;2.53;;;9.70;99.90;;;;;;5033802;28;20411;-81
2022/10/03 03:46:42;;;;;;;7.43;1.73;;;9.70;99.90;;;;;;5033752;28;20041;-76
2022/10/03 03:49:29;;;;;;;20.90;4.10;;;9.60;99.90;;;;;;5020315;28;20053;-82
2022/10/03 03:51:55;;;;;;;11.85;3.42;;;9.60;99.90;;;;;;5033515;28;20033;-81
2022/10/03 03:54:52;;;;;;;8.30;1.70;;;9.50;99.90;;;;;;5033954;28;20369;-79
2022/10/03 03:57:26;;;;;;;5.47;1.50;;;9.40;99.90;;;;;;5029478;28;20148;-80
2022/10/03 04:00:00;;;;;;;6.68;2.45;;;9.60;99.90;;;;;;5035863;28;20132;-80
2022/10/03 04:02:58;;;;;;;7.47;2.45;;;9.40;99.90;;;;;;5035002;28;20049;-79
2022/10/03 04:05:33;;;;;;;14.85;3.92;;;9.60;99.90;;;;;;5004169;28;20045;-80
2022/10/03 04:08:28;;;;;;;11.07;2.35;;;9.50;99.90;;;;;;5031552;28;20616;-80
2022/10/03 04:11:17;;;;;;;9.25;2.33;;;9.50;99.90;;;;;;5021410;28;20344;-78
2022/10/03 04:14:01;;;;;;;14.23;2.42;;;9.50;99.90;;;;;;5048492;28;20053;-74
2022/10/03 04:20:03;;;;;;;25.70;4.07;;;9.80;99.90;;;;;;5037838;28;20484;-78
2022/10/03 04:22:35;;;;;;;20.17;3.70;;;9.60;99.90;;;;;;5037638;28;20049;-77
2022/10/03 04:25:08;;;;;;;8.82;1.60;;;9.40;99.90;;;;;;5030861;28;20049;-82
2022/10/03 04:28:09;;;;;;;11.23;2.42;;;9.40;99.90;;;;;;5039760;28;20045;-78
2022/10/03 04:31:00;;;;;;;8.35;2.67;;;9.40;99.90;;;;;;5036995;28;20080;-77
2022/10/03 04:33:44;;;;;;;10.50;2.00;;;9.40;99.90;;;;;;5032608;28;20071;-81
2022/10/03 04:36:32;;;;;;;12.90;2.47;;;9.40;99.90;;;;;;5036891;28;20049;-74
2022/10/03 04:39:17;;;;;;;8.13;2.15;;;9.40;99.90;;;;;;5032723;28;20053;-79
2022/10/03 04:42:01;;;;;;;12.02;3.15;;;9.50;99.90;;;;;;5040907;28;20464;-81
2022/10/03 04:44:58;;;;;;;6.93;2.15;;;9.60;99.90;;;;;;5036408;28;20052;-81
2022/10/03 04:47:33;;;;;;;10.60;1.98;;;9.50;99.90;;;;;;5014520;28;20143;-80
2022/10/03 04:50:11;;;;;;;7.70;2.85;;;9.50;99.90;;;;;;5036602;28;20049;-79
2022/10/03 04:53:08;;;;;;;10.80;2.78;;;9.40;99.90;;;;;;5036396;28;20102;-76
2022/10/03 04:56:12;;;;;;;11.00;3.03;;;9.30;99.90;;;;;;5035732;28;20044;-80
2022/10/03 04:58:52;;;;;;;10.63;2.75;;;9.10;99.90;;;;;;5019954;28;20518;-77
2022/10/03 05:01:53;;;;;;;13.52;3.85;;;9.10;99.90;;;;;;5019094;28;20056;-80
2022/10/03 05:04:31;;;;;;;13.65;5.50;;;8.90;99.90;;;;;;5029760;28;20208;-81
2022/10/03 05:07:07;;;;;;;9.05;5.70;;;9.20;99.90;;;;;;5033923;28;20203;-78
2022/10/03 05:09:48;;;;;;;10.20;4.47;;;9.10;99.90;;;;;;5037374;28;20413;-79
2022/10/03 05:12:44;;;;;;;9.35;4.85;;;9.10;99.90;;;;;;5027061;28;20045;-78
2022/10/03 05:15:32;;;;;;;9.73;3.95;;;9.20;99.90;;;;;;5041508;28;20045;-77
2022/10/03 05:18:16;;;;;;;16.38;5.15;;;8.90;99.90;;;;;;5023231;28;20055;-78
2022/10/03 05:20:50;;;;;;;19.15;6.18;;;9.20;99.90;;;;;;5036760;28;20423;-79
2022/10/03 05:23:37;;;;;;;9.88;6.18;;;9.10;99.90;;;;;;5033992;28;20053;-77
2022/10/03 05:26:37;;;;;;;11.27;6.60;;;8.90;99.90;;;;;;5038424;28;20048;-75
2022/10/03 05:29:16;;;;;;;21.52;7.03;;;8.90;99.90;;;;;;5035934;28;20110;-78
2022/10/03 05:32:12;;;;;;;7.50;3.58;;;9.00;99.90;;;;;;5037298;28;20120;-74
2022/10/03 05:34:55;;;;;;;7.72;3.78;;;9.00;99.90;;;;;;5038244;28;20426;-77
2022/10/03 05:37:51;;;;;;;5.53;2.63;;;8.90;99.90;;;;;;5042816;28;20080;-79
2022/10/03 05:40:23;;;;;;;9.65;2.58;;;8.70;99.90;;;;;;5040498;28;20045;-76
2022/10/03 05:42:48;;;;;;;7.68;2.47;;;9.00;99.90;;;;;;5038867;28;20052;-76
2022/10/03 05:45:20;;;;;;;4.60;1.77;;;9.10;99.90;;;;;;5042519;28;20446;-75
2022/10/03 05:48:25;;;;;;;11.65;2.85;;;8.80;99.90;;;;;;4890579;22;21993;-74
2022/10/03 05:51:13;;;;;;;8.25;1.85;;;9.10;99.90;;;;;;5051227;28;20045;-78
2022/10/03 05:53:59;;;;;;;8.60;2.55;;;8.90;99.90;;;;;;5051480;28;20124;-76
2022/10/03 05:56:41;;;;;;;7.55;2.53;;;9.10;99.90;;;;;;5059797;28;20044;-78
2022/10/03 05:59:42;;;;;;;6.55;2.05;;;8.90;99.90;;;;;;5048985;28;20044;-78
2022/10/03 06:02:45;;;;;;;7.55;2.60;;;9.10;99.90;;;;;;5037056;28;20044;-79
2022/10/03 06:05:37;;;;;;;6.45;1.58;;;9.00;99.90;;;;;;5051374;28;20045;-73
2022/10/03 06:08:22;;;;;;;10.75;2.47;;;9.10;99.90;;;;;;5050073;28;20472;-76
2022/10/03 06:10:55;;;;;;;10.32;3.35;;;8.90;99.90;;;;;;5050879;28;20506;-79
2022/10/03 06:13:43;;;;;;;8.65;2.60;;;9.00;99.90;;;;;;5026849;28;20499;-77
2022/10/03 06:16:25;;;;;;;20.92;3.90;;;9.00;99.90;;;;;;5037943;28;20041;-78
2022/10/03 06:19:00;;;;;;;8.57;3.20;;;9.10;99.90;;;;;;5041676;28;20041;-78
2022/10/03 06:21:43;;;;;;;7.32;2.65;;;9.10;99.90;;;;;;5045348;28;20129;-80
2022/10/03 06:24:18;;;;;;;10.43;3.28;;;9.10;99.90;;;;;;5053744;28;20098;-79
2022/10/03 06:27:02;;;;;;;25.70;3.47;;;9.10;99.90;;;;;;5051547;28;20037;-75
2022/10/03 06:29:53;;;;;;;10.23;2.53;;;9.10;99.90;;;;;;5042963;28;20126;-76
2022/10/03 06:32:50;;;;;;;6.50;2.90;;;9.20;99.90;;;;;;5058949;28;20044;-80
2022/10/03 06:35:40;;;;;;;7.93;2.00;;;9.40;99.90;;;;;;5053051;28;20458;-76
2022/10/03 06:38:45;;;;;;;6.53;2.85;;;9.50;99.90;;;;;;5038246;28;20094;-79
2022/10/03 06:41:35;;;;;;;12.93;2.22;;;9.60;99.90;;;;;;5061968;28;20044;-76
2022/10/03 06:44:07;;;;;;;;;;;9.40;99.90;;;;;;5053264;28;20166;-79
2022/10/03 06:47:27;;;;;;;6.18;2.33;;;9.50;99.90;;;;;;5036834;28;19963;-82
2022/10/03 06:50:05;;;;;;;10.30;2.85;;;9.50;99.90;;;;;;4959333;28;20055;-78
2022/10/03 06:52:39;;;;;;;8.23;3.20;;;9.60;99.90;;;;;;5031733;28;20136;-79
2022/10/03 06:55:26;;;;;;;10.23;3.10;;;9.90;99.90;;;;;;5030627;28;20056;-79
2022/10/03 06:58:11;;;;;;;9.52;3.80;;;9.80;99.90;;;;;;5053369;28;20048;-76
2022/10/03 07:00:53;;;;;;;9.98;3.08;;;10.00;99.90;;;;;;5047760;28;20163;-81
2022/10/03 07:03:54;;;;;;;9.52;2.47;;;10.00;99.90;;;;;;5050268;28;20053;-79
2022/10/03 07:06:26;;;;;;;6.78;1.95;;;10.00;99.90;;;;;;4991445;28;20091;-80
2022/10/03 07:09:22;;;;;;;10.70;2.95;;;10.10;99.90;;;;;;5023274;28;20095;-79
2022/10/03 07:12:05;;;;;;;11.85;2.40;;;10.60;99.90;;;;;;5040353;28;20044;-80
2022/10/03 07:15:18;;;;;;;22.75;5.47;;;10.40;99.90;;;;;;5023668;28;20056;-80
2022/10/03 07:17:52;;;;;;;11.48;2.60;;;10.50;99.90;;;;;;4937492;28;20046;-75
2022/10/03 07:20:39;;;;;;;7.45;1.42;;;10.70;99.90;;;;;;4957703;28;20106;-76
2022/10/03 07:23:08;;;;;;;12.15;2.35;;;10.90;99.90;;;;;;5022368;28;20056;-77
2022/10/03 07:25:42;;;;;;;10.38;2.53;;;10.90;99.90;;;;;;5042120;28;20045;-79
2022/10/03 07:28:20;;;;;;;12.63;3.85;;;11.20;99.90;;;;;;5040421;28;20425;-80
2022/10/03 07:30:54;;;;;;;16.80;2.83;;;11.10;99.90;;;;;;5036094;28;20039;-79
2022/10/03 07:33:37;;;;;;;8.52;2.50;;;11.30;99.90;;;;;;5057094;28;20059;-77
2022/10/03 07:39:41;;;;;;;11.27;2.72;;;11.80;99.90;;;;;;5028950;28;20056;-79
2022/10/03 07:42:31;;;;;;;11.63;2.00;;;11.90;99.90;;;;;;5054972;28;20051;-79
2022/10/03 07:45:33;;;;;;;7.50;2.30;;;11.80;99.90;;;;;;5051393;28;20433;-80
2022/10/03 07:48:12;;;;;;;5.28;1.25;;;11.90;99.90;;;;;;5035760;28;20403;-76
2022/10/03 07:50:43;;;;;;;9.10;2.25;;;12.00;99.90;;;;;;5025243;28;20055;-76
2022/10/03 07:53:14;;;;;;;6.50;2.15;;;12.40;99.90;;;;;;5042241;28;20737;-77
2022/10/03 07:55:59;;;;;;;14.05;2.65;;;12.10;99.90;;;;;;5053574;28;20588;-78
2022/10/03 07:58:53;;;;;;;8.95;1.50;;;12.50;99.90;;;;;;5037520;28;20052;-75
2022/10/03 08:01:44;;;;;;;15.75;2.35;;;12.80;99.90;;;;;;4926367;28;20639;-76
2022/10/03 08:04:25;;;;;;;18.35;4.25;;;12.90;99.90;;;;;;5029961;28;20053;-75
2022/10/03 08:07:31;;;;;;;13.00;2.85;;;13.00;99.90;;;;;;5039967;28;20049;-76
2022/10/03 08:10:16;;;;;;;7.85;1.40;;;12.80;99.90;;;;;;5002428;28;20490;-85
2022/10/03 08:12:54;;;;;;;6.05;1.77;;;13.00;99.90;;;;;;5029610;28;20514;-80
2022/10/03 08:15:31;;;;;;;12.30;1.95;;;13.10;99.90;;;;;;5025469;28;20049;-78
2022/10/03 08:18:25;;;;;;;8.20;2.10;;;13.40;99.90;;;;;;5010005;28;20045;-83
2022/10/03 08:20:54;;;;;;;6.72;1.60;;;13.10;99.90;;;;;;5048162;28;20045;-80
2022/10/03 08:23:54;;;;;;;10.65;2.00;;;13.20;99.90;;;;;;5050250;28;20400;-79
2022/10/03 08:26:33;;;;;;;14.23;2.25;;;13.30;99.90;;;;;;5040530;28;20387;-79
2022/10/03 08:29:18;;;;;;;10.20;2.20;;;13.70;99.90;;;;;;5033113;28;20443;-75
2022/10/03 08:32:06;;;;;;;11.57;3.13;;;13.80;99.90;;;;;;5044750;28;20077;-76
2022/10/03 08:34:41;;;;;;;8.32;1.30;;;13.90;99.90;;;;;;5042481;28;20551;-75
2022/10/03 08:37:34;;;;;;;20.98;3.10;;;13.90;99.90;;;;;;5058933;28;20053;-74
2022/10/03 08:40:21;;;;;;;10.55;2.10;;;13.90;99.90;;;;;;5032267;28;20049;-74
2022/10/03 08:43:24;;;;;;;12.35;2.17;;;14.10;99.90;;;;;;5046834;28;20509;-74
2022/10/03 08:46:10;;;;;;;10.45;2.13;;;14.10;99.90;;;;;;5045067;28;20045;-75
2022/10/03 08:48:52;;;;;;;9.10;1.67;;;14.10;99.90;;;;;;5031421;28;20475;-75
2022/10/03 08:52:09;;;;;;;6.57;1.65;;;13.90;99.90;;;;;;5032148;28;20144;-75
2022/10/03 08:55:00;;;;;;;13.80;2.40;;;14.00;99.90;;;;;;4943241;28;20077;-74
2022/10/03 08:58:04;;;;;;;10.65;1.25;;;14.40;99.90;;;;;;5044290;28;20052;-72
2022/10/03 09:00:44;;;;;;;6.85;2.05;;;14.20;99.90;;;;;;5052590;28;20045;-74
2022/10/03 09:03:53;;;;;;;8.70;2.08;;;14.40;99.90;;;;;;5036149;28;20084;-74
2022/10/03 09:06:33;;;;;;;9.48;1.73;;;14.60;99.90;;;;;;5043066;28;20245;-75
2022/10/03 09:09:05;;;;;;;7.20;1.08;;;14.40;99.90;;;;;;5044458;28;20045;-74
2022/10/03 09:12:05;;;;;;;21.77;2.47;;;14.50;99.90;;;;;;5033884;28;20155;-76
2022/10/03 09:14:34;;;;;;;;;;;14.70;99.90;;;;;;5036601;28;20057;-75
2022/10/03 09:17:21;;;;;;;8.23;1.40;;;14.60;99.90;;;;;;5058289;28;19920;-75
2022/10/03 09:19:59;;;;;;;6.65;1.75;;;14.70;99.90;;;;;;5041912;28;20045;-74
2022/10/03 09:22:46;;;;;;;17.83;3.30;;;15.00;99.90;;;;;;5052328;28;20130;-76
2022/10/03 09:25:40;;;;;;;8.13;1.40;;;15.00;99.90;;;;;;5036612;28;20533;-74
2022/10/03 09:28:24;;;;;;;8.20;1.45;;;15.00;99.90;;;;;;5026711;28;20045;-74
2022/10/03 09:31:27;;;;;;;6.25;0.85;;;15.20;99.90;;;;;;5038249;28;20041;-75
2022/10/03 09:34:07;;;;;;;7.28;1.70;;;15.10;99.90;;;;;;5041943;28;20065;-77
2022/10/03 09:36:57;;;;;;;6.18;1.55;;;15.30;99.90;;;;;;5034304;28;20115;-75
2022/10/03 09:39:47;;;;;;;7.07;1.17;;;15.40;99.90;;;;;;5046713;28;20064;-75
2022/10/03 09:42:29;;;;;;;10.00;2.55;;;15.40;99.90;;;;;;5049237;28;20411;-77
2022/10/03 09:45:29;;;;;;;7.07;1.30;;;15.40;99.90;;;;;;5048338;28;20048;-75
2022/10/03 09:48:10;;;;;;;10.02;1.70;;;15.40;99.90;;;;;;5029067;28;20041;-75
2022/10/03 09:50:57;;;;;;;6.07;1.13;;;15.40;99.90;;;;;;5045725;28;20127;-73
2022/10/03 09:53:29;;;;;;;4.85;1.02;;;15.50;99.90;;;;;;5045192;28;20057;-76
2022/10/03 09:56:24;;;;;;;9.32;2.03;;;15.40;99.90;;;;;;5043488;28;20052;-75
2022/10/03 09:59:14;;;;;;;5.10;1.00;;;15.60;99.90;;;;;;5042475;28;20051;-73
2022/10/03 10:01:43;;;;;;;4.47;0.93;;;15.60;99.90;;;;;;5055691;28;20056;-74
2022/10/03 10:04:29;;;;;;;11.55;2.08;;;15.60;99.90;;;;;;5027172;28;20048;-71
2022/10/03 10:07:33;;;;;;;8.40;1.30;;;15.70;99.90;;;;;;5044382;28;20045;-73
2022/10/03 10:10:17;;;;;;;6.80;1.13;;;15.90;99.90;;;;;;5041789;28;20076;-73
2022/10/03 10:13:01;;;;;;;4.78;1.25;;;16.00;99.90;;;;;;5050967;28;20057;-74
2022/10/03 10:16:12;;;;;;;6.53;2.45;;;15.90;99.90;;;;;;5008931;28;20098;-75
2022/10/03 10:18:57;;;;;;;9.07;2.55;;;15.90;99.90;;;;;;5008907;28;20064;-75
2022/10/03 10:21:29;;;;;;;5.85;1.00;;;15.90;99.90;;;;;;5035998;28;20052;-75
2022/10/03 10:24:02;;;;;;;8.63;1.40;;;15.90;99.90;;;;;;5031098;28;20053;-75
2022/10/03 10:27:00;;;;;;;9.07;2.67;;;15.90;99.90;;;;;;5048897;28;20112;-76
2022/10/03 10:30:00;;;;;;;6.40;0.60;;;16.00;99.90;;;;;;5025390;28;20049;-76
2022/10/03 10:33:04;;;;;;;4.60;0.98;;;16.00;99.90;;;;;;5049442;28;20044;-76
2022/10/03 10:36:01;;;;;;;4.85;0.90;;;15.90;99.90;;;;;;5040300;28;20115;-76
2022/10/03 10:38:36;;;;;;;5.25;1.13;;;16.10;99.90;;;;;;5052457;28;20517;-77
2022/10/03 10:41:40;;;;;;;6.68;1.75;;;16.10;99.90;;;;;;5029522;28;20041;-78
2022/10/03 10:44:31;;;;;;;4.03;1.25;;;16.10;99.90;;;;;;5041557;28;20049;-77
2022/10/03 10:47:23;;;;;;;3.83;0.93;;;16.20;99.90;;;;;;5023538;28;20059;-76
2022/10/03 10:50:16;;;;;;;5.97;1.52;;;16.20;99.90;;;;;;5023160;28;20057;-76
2022/10/03 10:53:00;;;;;;;3.50;0.98;;;16.30;99.90;;;;;;5052920;28;20135;-76
2022/10/03 10:55:41;;;;;;;7.43;1.17;;;16.30;99.90;;;;;;5053393;28;20033;-77
2022/10/03 10:58:25;;;;;;;;;;;16.30;99.90;;;;;;5007866;28;20049;-77
2022/10/03 11:01:18;;;;;;;6.63;1.67;;;16.20;99.90;;;;;;5047156;28;20354;-76
2022/10/03 11:04:11;;;;;;;7.47;1.40;;;16.10;99.90;;;;;;5042727;28;20099;-77
2022/10/03 11:07:10;;;;;;;6.28;1.73;;;16.10;99.90;;;;;;5060835;28;20063;-75
2022/10/03 11:09:45;;;;;;;10.30;1.48;;;16.40;99.90;;;;;;5060641;28;20127;-74
2022/10/03 11:12:23;;;;;;;5.28;1.40;;;16.70;99.90;;;;;;5050805;28;20049;-75
2022/10/03 11:15:16;;;;;;;5.45;1.33;;;16.80;99.90;;;;;;5040134;28;20163;-75
2022/10/03 11:18:08;;;;;;;5.45;0.60;;;16.80;99.90;;;;;;5038902;28;20056;-74
2022/10/03 11:20:53;;;;;;;7.53;0.70;;;16.80;99.90;;;;;;5044670;28;20537;-75
2022/10/03 11:23:51;;;;;;;6.88;1.65;;;16.60;99.90;;;;;;5050616;28;20127;-77
2022/10/03 11:26:44;;;;;;;6.55;0.63;;;16.40;99.90;;;;;;5016005;28;20084;-75
2022/10/03 11:29:58;;;;;;;12.48;3.08;;;16.40;99.90;;;;;;5039959;28;20045;-76
2022/10/03 11:32:44;;;;;;;7.22;1.00;;;16.60;99.90;;;;;;5004625;28;20890;-74
2022/10/03 11:35:31;;;;;;;7.00;1.15;;;16.80;99.90;;;;;;5039589;28;20049;-75
2022/10/03 11:38:06;;;;;;;4.20;1.05;;;16.80;99.90;;;;;;5029320;28;20045;-76
2022/10/03 11:40:47;;;;;;;8.07;0.95;;;16.70;99.90;;;;;;5042300;28;20226;-76
2022/10/03 11:43:34;;;;;;;6.95;1.00;;;16.70;99.90;;;;;;5057915;28;20544;-76
2022/10/03 11:46:15;;;;;;;5.32;0.80;;;16.70;99.90;;;;;;5058212;28;20045;-76
2022/10/03 11:49:15;;;;;;;6.50;1.42;;;16.80;99.90;;;;;;5058835;28;20094;-77
2022/10/03 11:51:46;;;;;;;11.07;1.73;;;16.80;99.90;;;;;;5057321;28;20041;-76
2022/10/03 11:54:26;;;;;;;5.82;0.70;;;16.70;99.90;;;;;;5057079;28;20685;-75
2022/10/03 11:57:25;;;;;;;7.50;1.10;;;16.60;99.90;;;;;;5041659;28;20040;-76
2022/10/03 11:59:59;;;;;;;6.53;0.90;;;16.70;99.90;;;;;;5039330;28;20178;-74
2022/10/03 12:02:51;;;;;;;5.53;1.08;;;16.60;99.90;;;;;;5051702;28;20056;-75
2022/10/03 12:05:45;;;;;;;8.60;1.67;;;16.40;99.90;;;;;;5036112;28;20209;-75
2022/10/03 12:11:08;;;;;;;8.35;1.75;;;16.50;99.90;;;;;;5052743;28;20128;-76
2022/10/03 12:13:37;;;;;;;11.00;1.60;;;16.60;99.90;;;;;;5046045;28;20052;-75
2022/10/03 12:16:08;;;;;;;6.45;1.90;;;16.70;99.90;;;;;;5057455;28;20422;-76
2022/10/03 12:18:41;;;;;;;6.13;0.88;;;16.70;99.90;;;;;;5040722;28;20402;-76
2022/10/03 12:21:23;;;;;;;9.90;1.60;;;16.80;99.90;;;;;;5053369;28;20045;-78
2022/10/03 12:24:17;;;;;;;7.38;0.85;;;16.90;99.90;;;;;;5046108;28;20643;-78
2022/10/03 12:26:42;;;;;;;4.97;0.88;;;16.90;99.90;;;;;;5032376;28;20568;-78
2022/10/03 12:29:15;;;;;;;7.13;1.13;;;16.70;99.90;;;;;;5050865;28;20045;-78
2022/10/03 12:32:04;;;;;;;2.75;0.95;;;16.80;99.90;;;;;;5045068;28;20056;-73
2022/10/03 12:34:41;;;;;;;13.15;1.95;;;16.70;99.90;;;;;;5046365;28;20045;-77
2022/10/03 12:37:27;;;;;;;6.57;1.63;;;16.60;99.90;;;;;;5046601;28;20041;-76
2022/10/03 12:40:05;;;;;;;5.50;1.25;;;16.60;99.90;;;;;;5054080;28;20052;-77
2022/10/03 12:42:40;;;;;;;3.60;0.70;;;16.60;99.90;;;;;;5045896;28;20079;-77
2022/10/03 12:45:38;;;;;;;4.43;1.00;;;16.70;99.90;;;;;;5034537;28;20521;-77
2022/10/03 12:48:41;;;;;;;4.78;0.95;;;16.60;99.90;;;;;;5040263;28;20059;-76
2022/10/03 12:51:35;;;;;;;3.72;1.35;;;16.80;99.90;;;;;;5048727;28;20049;-75
2022/10/03 12:54:34;;;;;;;9.27;1.10;;;16.80;99.90;;;;;;5047649;28;20400;-76
2022/10/03 12:57:25;;;;;;;2.60;0.80;;;16.80;99.90;;;;;;5053351;28;20044;-77
2022/10/03 12:59:55;;;;;;;8.02;0.77;;;16.90;99.90;;;;;;5031213;28;20041;-77
2022/10/03 13:02:31;;;;;;;4.15;1.48;;;16.80;99.90;;;;;;5046434;28;20047;-77
2022/10/03 13:05:33;;;;;;;6.80;0.98;;;17.00;99.90;;;;;;5015179;28;20056;-80
2022/10/03 13:08:20;;;;;;;7.97;2.15;;;17.00;99.90;;;;;;5049179;28;20032;-76
2022/10/03 13:11:04;;;;;;;5.82;1.27;;;17.00;99.90;;;;;;5052929;28;20051;-79
2022/10/03 13:14:12;;;;;;;4.80;0.95;;;17.00;99.90;;;;;;5053061;28;20097;-78
2022/10/03 13:17:12;;;;;;;9.73;1.25;;;17.00;99.90;;;;;;5029520;28;20487;-75
2022/10/03 13:19:45;;;;;;;;;;;17.10;99.90;;;;;;5006013;28;20060;-78
2022/10/03 13:22:27;;;;;;;13.65;1.98;;;17.30;99.90;;;;;;5061070;28;19927;-76
2022/10/03 13:25:07;;;;;;;5.43;1.15;;;17.30;99.90;;;;;;5062703;28;20056;-74
2022/10/03 13:27:48;;;;;;;7.30;1.05;;;17.30;99.90;;;;;;5046411;28;20060;-78
2022/10/03 13:30:16;;;;;;;;;;;17.20;99.90;;;;;;5059496;28;20070;-79
2022/10/03 13:32:57;;;;;;;6.28;1.70;;;17.20;99.90;;;;;;5062614;28;20032;-78
2022/10/03 13:35:57;;;;;;;10.15;1.02;;;17.30;99.90;;;;;;5062963;28;20044;-77
2022/10/03 13:38:45;;;;;;;4.82;1.65;;;17.20;99.90;;;;;;5034150;28;20522;-76
2022/10/03 13:41:19;;;;;;;1.70;1.00;;;17.20;99.90;;;;;;5033558;28;20483;-78
2022/10/03 13:43:50;;;;;;;4.80;0.77;;;17.30;99.90;;;;;;5028039;28;20298;-79
2022/10/03 13:46:36;;;;;;;2.95;0.93;;;17.30;99.90;;;;;;5029111;28;20416;-78
2022/10/03 13:49:11;;;;;;;4.15;1.10;;;17.20;99.90;;;;;;5021915;28;20057;-77
2022/10/03 13:51:51;;;;;;;5.82;1.23;;;17.20;99.90;;;;;;5021318;28;20089;-77
2022/10/03 13:54:28;;;;;;;4.10;1.02;;;17.20;99.90;;;;;;5021586;28;20056;-77
2022/10/03 13:57:09;;;;;;;4.28;1.52;;;17.20;99.90;;;;;;5003952;28;20054;-74
2022/10/03 14:00:11;;;;;;;4.68;1.83;;;17.20;99.90;;;;;;5038529;28;20049;-79
2022/10/03 14:02:50;;;;;;;2.88;0.73;;;17.10;99.90;;;;;;5034442;28;20052;-78
2022/10/03 14:05:37;;;;;;;8.68;1.45;;;17.10;99.90;;;;;;5020593;28;20057;-78
2022/10/03 14:08:18;;;;;;;4.90;1.00;;;17.10;99.90;;;;;;5027371;28;20045;-78
2022/10/03 14:11:17;;;;;;;6.43;1.50;;;17.20;99.90;;;;;;5039343;28;20044;-77
2022/10/03 14:14:05;;;;;;;3.80;0.80;;;17.30;99.90;;;;;;5026599;28;20049;-78
2022/10/03 14:16:35;;;;;;;5.03;1.38;;;17.30;99.90;;;;;;5028269;28;20057;-77
2022/10/03 14:19:38;;;;;;;3.70;1.73;;;17.30;99.90;;;;;;5019846;28;20041;-79
2022/10/03 14:22:22;;;;;;;3.88;0.50;;;17.30;99.90;;;;;;4961602;28;20272;-80
2022/10/03 14:24:54;;;;;;;7.68;1.20;;;17.20;99.90;;;;;;5032774;28;20388;-81
2022/10/03 14:27:46;;;;;;;5.75;2.38;;;17.20;99.90;;;;;;5039497;28;22680;-78
2022/10/03 14:30:15;;;;;;;6.53;1.15;;;17.10;99.90;;;;;;5030200;28;20103;-80
2022/10/03 14:33:09;;;;;;;4.07;0.93;;;17.10;99.90;;;;;;5029518;28;20049;-79
2022/10/03 14:35:44;;;;;;;6.97;1.00;;;17.00;99.90;;;;;;5031007;28;20475;-79
2022/10/03 14:39:02;;;;;;;4.38;1.02;;;16.90;99.90;;;;;;5025852;28;20133;-73